Tiempo atmosférico en la estación meteorológica de Caldes De Montbui, Barcelona (168 m.)



Fecha
DESCASC
Temp. máxima en grados centígrados (hora)
DESCASC
Temp. mínima en grados centígrados (hora)
DESCASC
Temp. media en grados centígrados
DESCASC
Racha de viento máxima en m/sg (hora)
DESCASC
Velocidad máxima media en intervalos de 10 minutos(hora)
DESCASC
Precipitaciones diarias en mm
DESCASC
Precipitaciones de 00:00 a 06:00 en mm
DESCASC
Precipitaciones de 06:00 a 12:00 en mm
DESCASC
Precipitaciones de 12:00 a 18:00 en mm
DESCASC
Precipitaciones de 18:00 a 24:00 en mm
DESCASC
22-08-2019 30.2 (14:30) 18.9 (07:20) 24.6 9.44 (14:10) 5.83 (14:10) 0 0 0 0 0
21-08-2019 29.6 (13:10) 15.5 (07:20) 22.6 9.17 (15:30) 5.83 (14:00) 0 0 0 0 0
20-08-2019 29 (17:20) 19.9 (23:59) 24.4 9.17 (13:20) 5.56 (13:10) 0 0 0 0 0
19-08-2019 29.6 (13:30) 19.8 (06:50) 24.7 8.33 (13:30) 5.28 (13:30) 0 0 0 0 0
18-08-2019 33 (14:20) 19.1 (00:00) 26.1 9.72 (16:00) 6.11 (16:00) 0 0 0 0 0
17-08-2019 32 (13:50) 18.5 (00:00) 25.3 9.44 (15:50) 6.11 (16:00) 0 0 0 0 0
16-08-2019 29.8 (18:50) 21.4 (00:00) 25.6 7.22 (16:00) 4.72 (14:30) 0.2 0 0.2 0 0
15-08-2019 30.6 (15:20) 18.7 (00:00) 24.7 10.28 (17:30) 5.83 (15:40) 2.4 0 0 0 2.4
14-08-2019 28.4 (13:50) 17.1 (00:00) 22.8 9.17 (16:10) 5.28 (14:50) 0 0 0 0 0
13-08-2019 29.9 (17:50) 16.1 (00:00) 23 9.72 (13:20) 5.83 (19:20) 0 0 0 0 0
12-08-2019 28.8 (16:00) 20.3 (00:00) 24.5 8.89 (17:20) 6.11 (17:00) 14.2 9.4 4.8 0 0
11-08-2019 32.6 (13:50) 20.5 (00:00) 26.5 8.61 (14:20) 6.11 (14:50) 0 0 0 0 0
10-08-2019 33.4 (13:50) 21.7 (00:00) 27.6 8.61 (14:10) 6.11 (14:10) 0 0 0 0 0
09-08-2019 35.5 (13:00) 20.4 (00:00) 27.9 10 (15:50) 6.94 (15:40) 0 0 0 0 0
08-08-2019 33.6 (13:00) 21.2 (00:00) 27.4 10.28 (14:20) 7.22 (14:20) 0 0 0 0 0
07-08-2019 30.8 (13:50) 23 (00:00) 26.9 8.61 (14:30) 5.56 (14:10) 0 0 0 0 0
06-08-2019 33.7 (16:00) 19.9 (00:00) 26.8 7.78 (16:20) 5.28 (16:20) 0 0 0 0 0
05-08-2019 34 (13:20) 20.2 (00:00) 27.1 9.17 (14:40) 5.83 (17:20) 0 0 0 0 0
04-08-2019 33.4 (13:30) 19 (00:00) 26.2 10 (17:00) 6.39 (17:10) 0 0 0 0 0
03-08-2019 33 (16:40) 17.6 (00:00) 25.3 10 (15:50) 6.94 (16:30) 0 0 0 0 0
02-08-2019 33.4 (13:40) 18 (00:00) 25.7 10.56 (16:20) 6.67 (14:20) 0 0 0 0 0
01-08-2019 32.2 (15:40) 18.3 (00:00) 25.3 8.06 (16:30) 5.28 (16:30) 0 0 0 0 0
31-07-2019 28.6 (13:00) 20.5 (00:00) 24.6 10.28 (13:30) 6.94 (13:30) 0 0 0 0 0
30-07-2019 28.7 (15:40) 21.1 (00:00) 24.9 9.17 (16:10) 6.11 (15:00) 0 0 0 0 0
29-07-2019 30.7 (17:40) 17.1 (00:00) 23.9 9.44 (15:00) 5.56 (14:30) 0 0 0 0 0
28-07-2019 27.7 (15:40) 16 (00:00) 21.9 10.28 (13:50) 5.56 (16:00) 0 0 0 0 0
27-07-2019 26 (17:40) 17.1 (00:00) 21.6 18.33 (11:10) 7.22 (11:10) 41.4 0 40.2 1.2 0
26-07-2019 33.9 (13:40) 20.1 (00:00) 27 8.33 (17:40) 5.56 (14:20) 0.2 0 0 0 0.2

Gráficas

Temp. máximas Temp. mínimas Temp. medias Precipitaciones Rachas de viento máximas Velocidades máximas media en intervalos de 10 minutos

Datos horarios

Fecha y hora oficial Temperatura (ºC) Velocidad del viento (km/h) Dirección del viento Racha (km/h) Dirección de racha Precipitación (mm) Presión (hPa) Tendencia (hPa) Humedad (%)
2019-08-24 23:00:00 24.1 0 Calma 6 Sudoeste 0 -- -- 67
2019-08-24 22:00:00 25 4 Sur 6 Sur 0 -- -- 65
2019-08-24 21:00:00 26 2 Este 12 Este 0 -- -- 59
2019-08-24 20:00:00 27 8 Este 19 Sudeste 0 -- -- 57
2019-08-24 19:00:00 28.1 14 Sudeste 25 Sudeste 0 -- -- 53
2019-08-24 18:00:00 29.2 17 Sudeste 30 Sudeste 0 -- -- 48
2019-08-24 17:00:00 30.2 18 Sudeste 34 Sudeste 0 -- -- 45
2019-08-24 16:00:00 30.5 22 Sudeste 32 Sudeste 0 -- -- 41
2019-08-24 15:00:00 31.4 22 Sudeste 32 Sudeste 0 -- -- 41
2019-08-24 14:00:00 32.1 14 Sudeste 23 Este 0 -- -- 41
2019-08-24 13:00:00 31.1 13 Sudeste 20 Sudeste 0 -- -- 38
2019-08-24 12:00:00 29.7 6 Sudeste 15 Sudeste 0 -- -- 44
2019-08-24 11:00:00 27.4 5 Este 11 Sudeste 0 -- -- 49
2019-08-24 10:00:00 24.6 2 Noroeste 9 Este 0 -- -- 63
2019-08-24 09:00:00 22 5 Sudeste 8 Noroeste 0 -- -- 69
2019-08-24 08:00:00 18.9 5 Noroeste 10 Noroeste 0 -- -- 78
2019-08-24 07:00:00 18.2 8 Noroeste 12 Noroeste 0 -- -- 79
2019-08-24 06:00:00 18.9 8 Noroeste 10 Noroeste 0 -- -- 77
2019-08-24 05:00:00 19.1 7 Noroeste 12 Oeste 0 -- -- 76
2019-08-24 04:00:00 19.6 3 Noroeste 12 Noroeste 0 -- -- 76
2019-08-24 03:00:00 20 9 Noroeste 10 Noroeste 0 -- -- 73
2019-08-24 02:00:00 20.5 7 Noroeste 10 Noroeste 0 -- -- 72
2019-08-24 01:00:00 20.6 5 Noroeste 9 Noroeste 0 -- -- 71
2019-08-24 00:00:00 21.8 6 Noroeste 13 Noroeste 0 -- -- 71
2019-08-23 23:00:00 22 6 Noroeste 8 Noroeste 0 -- -- 70
2019-08-23 22:00:00 22.7 3 Noroeste 4 Noroeste 0 -- -- 71
2019-08-23 21:00:00 24.4 3 Sur 14 Sudeste 0 -- -- 67
2019-08-23 20:00:00 26.2 11 Sudeste 19 Sudeste 0 -- -- 60
2019-08-23 19:00:00 27.6 12 Sudeste 24 Sudeste 0 -- -- 54
2019-08-23 18:00:00 28.6 15 Sudeste 28 Sudeste 0 -- -- 48
2019-08-23 17:00:00 29.6 19 Sudeste 30 Sudeste 0 -- -- 48
2019-08-23 16:00:00 29.9 17 Sudeste 25 Sudeste 0 -- -- 45
2019-08-23 15:00:00 29.7 13 Sudeste 29 Sudeste 0 -- -- 46
2019-08-23 14:00:00 30 18 Sudeste 32 Este 0 -- -- 44
2019-08-23 13:00:00 29.6 14 Sudeste 25 Sudeste 0 -- -- 43
2019-08-23 12:00:00 29.2 13 Sudeste 19 Este 0 -- -- 40
2019-08-23 11:00:00 27.4 6 Sur 11 Este 0 -- -- 43
2019-08-23 10:00:00 25 2 Este 5 Nordeste 0 -- -- 59
2019-08-23 09:00:00 21.3 0 Calma 4 Oeste 0 -- -- 70
2019-08-23 08:00:00 17.8 3 Oeste 5 Oeste 0 -- -- 85
2019-08-23 07:00:00 17.3 4 Noroeste 8 Noroeste 0 -- -- 83
2019-08-23 06:00:00 17.8 6 Noroeste 10 Noroeste 0 -- -- 83
2019-08-23 05:00:00 17.7 0 Calma 9 Noroeste 0 -- -- 82
2019-08-23 04:00:00 17.1 4 Noroeste 6 Oeste 0 -- -- 84
2019-08-23 03:00:00 18.1 4 Oeste 9 Noroeste 0 -- -- 83
2019-08-23 02:00:00 19.4 3 Norte 10 Noroeste 0 -- -- 79
2019-08-23 01:00:00 20.1 4 Este 13 Noroeste 0 -- -- 77
2019-08-23 00:00:00 21 5 Noroeste 12 Noroeste 0 -- -- 75
2019-08-22 23:00:00 22.3 5 Noroeste 8 Noroeste 0 -- -- 69
2019-08-22 22:00:00 23.7 4 Noroeste 8 Este 0 -- -- 67
2019-08-22 21:00:00 25 6 Este 15 Sudeste 0 -- -- 62
2019-08-22 20:00:00 26.9 10 Sudeste 18 Sudeste 0 -- -- 54
2019-08-22 19:00:00 27.9 15 Sudeste 23 Sudeste 0 -- -- 47
2019-08-22 18:00:00 28.8 11 Sudeste 26 Sudeste 0 -- -- 44
2019-08-22 17:00:00 29 15 Sudeste 31 Sudeste 0 -- -- 43
2019-08-22 16:00:00 29.2 17 Sudeste 29 Sudeste 0 -- -- 41
2019-08-22 15:00:00 30 17 Sudeste 34 Este 0 -- -- 43
2019-08-22 14:00:00 29 17 Sudeste 27 Sudeste 0 -- -- 49
2019-08-22 13:00:00 29.1 14 Sudeste 30 Sur 0 -- -- 52
2019-08-22 12:00:00 28.8 12 Sudeste 23 Sudeste 0 -- -- 51
2019-08-22 11:00:00 27.3 13 Sudeste 22 Sudeste 0 -- -- 60
2019-08-22 10:00:00 25 4 Sudeste 8 Este 0 -- -- 67
2019-08-22 09:00:00 22.1 3 Este 11 Noroeste 0 -- -- 74
2019-08-22 08:00:00 19.2 8 Noroeste 13 Noroeste 0 -- -- 80
2019-08-22 07:00:00 19 11 Noroeste 14 Noroeste 0 -- -- 82
2019-08-22 06:00:00 20 4 Oeste 6 Noroeste 0 -- -- 81
2019-08-22 05:00:00 20.8 4 Noroeste 6 Noroeste 0 -- -- 83
2019-08-22 04:00:00 21.1 0 Calma 4 Oeste 0 -- -- 82
2019-08-22 03:00:00 21.5 3 Noroeste 8 Noroeste 0 -- -- 83
2019-08-22 02:00:00 21.9 3 Sur 8 Oeste 0 -- -- 81
2019-08-22 01:00:00 22.2 7 Oeste 11 Oeste 0 -- -- 80
2019-08-22 00:00:00 22.4 3 Norte 9 Noroeste 0 -- -- 79
2019-08-21 23:00:00 23.1 3 Sur 4 Este 0 -- -- 75
2019-08-21 22:00:00 23.3 3 Este 6 Este 0 -- -- 74
2019-08-21 21:00:00 23.6 2 Sudeste 13 Sudeste 0 -- -- 75
2019-08-21 20:00:00 24.1 10 Este 20 Sudeste 0 -- -- 73
2019-08-21 19:00:00 25 11 Este 22 Sudeste 0 -- -- 68
2019-08-21 18:00:00 26.2 15 Sudeste 29 Sudeste 0 -- -- 57
2019-08-21 17:00:00 27.6 16 Sudeste 31 Sudeste 0 -- -- 56
2019-08-21 16:00:00 28.3 18 Sudeste 33 Sudeste 0 -- -- 53
2019-08-21 15:00:00 28.7 21 Sudeste 30 Sudeste 0 -- -- 51
2019-08-21 14:00:00 28.9 21 Sudeste 30 Sudeste 0 -- -- 47
2019-08-21 13:00:00 29.2 15 Este 27 Sudeste 0 -- -- 45
2019-08-21 12:00:00 28.7 7 Este 13 Nordeste 0 -- -- 39
2019-08-21 11:00:00 25.9 5 Noroeste 15 Noroeste 0 -- -- 46
2019-08-21 10:00:00 23 6 Sudeste 13 Este 0 -- -- 64
2019-08-21 09:00:00 20.7 2 Este 5 Sudeste 0 -- -- 70
2019-08-21 08:00:00 16.2 3 Oeste 6 Noroeste 0 -- -- 88
2019-08-21 07:00:00 15.6 3 Noroeste 7 Noroeste 0 -- -- 87
2019-08-21 06:00:00 15.9 3 Noroeste 8 Noroeste 0 -- -- 86
2019-08-21 05:00:00 16.4 2 Noroeste 5 Noroeste 0 -- -- 84
2019-08-21 04:00:00 17 3 Noroeste 5 Oeste 0 -- -- 81
2019-08-21 03:00:00 17.5 0 Calma 12 Noroeste 0 -- -- 77
2019-08-21 02:00:00 18.6 10 Noroeste 13 Noroeste 0 -- -- 74
2019-08-21 01:00:00 19 6 Noroeste 10 Noroeste 0 -- -- 70
2019-08-21 00:00:00 19.9 4 Noroeste 12 Oeste 0 -- -- 67
2019-08-20 23:00:00 21.2 7 Oeste 9 Oeste 0 -- -- 63
2019-08-20 22:00:00 23.3 2 Nordeste 6 Este 0 -- -- 55
2019-08-20 21:00:00 24 4 Sudeste 14 Sur 0 -- -- 60
2019-08-20 20:00:00 25.5 12 Sudeste 23 Sudeste 0 -- -- 57
2019-08-20 19:00:00 27.2 14 Sudeste 27 Sudeste 0 -- -- 54
2019-08-20 18:00:00 28.3 18 Sudeste 27 Sudeste 0 -- -- 53
2019-08-20 17:00:00 28.3 3 Sur 12 Sudeste 0 -- -- 45
2019-08-20 16:00:00 27 5 Sur 11 Sudoeste 0 -- -- 49
2019-08-20 15:00:00 26.3 5 Norte 24 Oeste 0 -- -- 51
2019-08-20 14:00:00 25.3 13 Noroeste 33 Oeste 0 -- -- 56
2019-08-20 13:00:00 26.2 18 Oeste 26 Oeste 0 -- -- 55
2019-08-20 12:00:00 25.8 6 Nordeste 20 Norte 0 -- -- 49
2019-08-20 11:00:00 25.8 8 Este 18 Nordeste 0 -- -- 48
2019-08-20 10:00:00 24.4 6 Este 19 Nordeste 0 -- -- 55
2019-08-20 09:00:00 24.1 5 Norte 10 Nordeste 0 -- -- 59
2019-08-20 08:00:00 21.1 5 Noroeste 13 Noroeste 0 -- -- 74
2019-08-20 07:00:00 20.6 6 Noroeste 10 Noroeste 0 -- -- 74
2019-08-20 06:00:00 21.6 5 Noroeste 9 Oeste 0 -- -- 71
2019-08-20 05:00:00 22.2 2 Norte 7 Norte 0 -- -- 65
2019-08-20 04:00:00 22.3 2 Nordeste 6 Sur 0 -- -- 66
2019-08-20 03:00:00 22.6 3 Noroeste 7 Noroeste 0 -- -- 66
2019-08-20 02:00:00 22.8 4 Noroeste 11 Este 0 -- -- 65
2019-08-20 01:00:00 22.7 5 Nordeste 14 Nordeste 0 -- -- 66
2019-08-20 00:00:00 22.9 3 Nordeste 13 Nordeste 0 -- -- 69
2019-08-19 23:00:00 23.2 4 Este 9 Este 0 -- -- 72
2019-08-19 22:00:00 23.6 4 Este 16 Este 0 -- -- 71
2019-08-19 21:00:00 24.2 6 Este 18 Este 0 -- -- 70
2019-08-19 20:00:00 25.4 9 Este 17 Sudeste 0 -- -- 65
2019-08-19 19:00:00 27.3 8 Este 22 Sudeste 0 -- -- 58
2019-08-19 18:00:00 27.1 15 Este 23 Sudeste 0 -- -- 57
2019-08-19 17:00:00 28.1 12 Este 27 Este 0 -- -- 55
2019-08-19 16:00:00 28.3 14 Este 26 Este 0 -- -- 55
2019-08-19 15:00:00 28.5 12 Este 27 Este 0 -- -- 57
2019-08-19 14:00:00 29.2 17 Sudeste 30 Sudeste 0 -- -- 56
2019-08-19 13:00:00 29.5 14 Este 25 Este 0 -- -- 57
2019-08-19 12:00:00 28.3 8 Sudeste 17 Sudeste 0 -- -- 62
2019-08-19 11:00:00 27.4 9 Sudeste 16 Este 0 -- -- 66
2019-08-19 10:00:00 25.9 4 Nordeste 14 Nordeste 0 -- -- 75
2019-08-19 09:00:00 23.7 3 Norte 7 Norte 0 -- -- 83
2019-08-19 08:00:00 20.7 4 Noroeste 12 Noroeste 0 -- -- 88
2019-08-19 07:00:00 20.1 7 Noroeste 10 Noroeste 0 -- -- 90
2019-08-19 06:00:00 20 8 Noroeste 12 Noroeste 0 -- -- 88
2019-08-19 05:00:00 20.6 7 Noroeste 13 Noroeste 0 -- -- 89
2019-08-19 04:00:00 21.5 9 Oeste 11 Oeste 0 -- -- 87
2019-08-19 03:00:00 22.8 5 Noroeste 10 Noroeste 0 -- -- 88
2019-08-19 02:00:00 23 4 Noroeste 9 Noroeste 0 -- -- 90
2019-08-19 01:00:00 22.9 5 Noroeste 9 Noroeste 0 -- -- 89
2019-08-19 00:00:00 23.6 6 Noroeste 10 Noroeste 0 -- -- 84
2019-08-18 23:00:00 24 3 Noroeste 6 Sudeste 0 -- -- 84
2019-08-18 22:00:00 25 4 Sur 10 Sudeste 0 -- -- 83
2019-08-18 21:00:00 26.3 5 Sudeste 15 Sudeste 0 -- -- 77
2019-08-18 20:00:00 27.7 11 Sudeste 25 Sudeste 0 -- -- 68
2019-08-18 19:00:00 29.6 15 Sudeste 30 Sudeste 0 -- -- 62
2019-08-18 18:00:00 31.1 19 Sudeste 32 Este 0 -- -- 55
2019-08-18 17:00:00 31.6 21 Sudeste 33 Sudeste 0 -- -- 55
2019-08-18 16:00:00 31.9 22 Sudeste 35 Sudeste 0 -- -- 56
2019-08-18 15:00:00 32.3 19 Sudeste 33 Sudeste 0 -- -- 54
2019-08-18 14:00:00 32.9 14 Sudeste 27 Sudeste 0 -- -- 48
2019-08-18 13:00:00 31 12 Sudeste 22 Sudeste 0 -- -- 53
2019-08-18 12:00:00 29.3 9 Sudoeste 22 Sur 0 -- -- 58
2019-08-18 11:00:00 28.3 10 Sudoeste 21 Sudoeste 0 -- -- 62
2019-08-18 10:00:00 26.9 5 Este 8 Este 0 -- -- 65
2019-08-18 09:00:00 23.7 3 Noroeste 13 Noroeste 0 -- -- 71
2019-08-18 08:00:00 20.4 5 Noroeste 12 Noroeste 0 -- -- 76
2019-08-18 07:00:00 19.3 9 Noroeste 17 Noroeste 0 -- -- 75
2019-08-18 06:00:00 19.1 9 Noroeste 15 Noroeste 0 -- -- 76
2019-08-18 05:00:00 19.4 10 Noroeste 14 Noroeste 0 -- -- 75
2019-08-18 04:00:00 19.7 10 Noroeste 14 Noroeste 0 -- -- 74
2019-08-18 03:00:00 20.2 10 Noroeste 15 Noroeste 0 -- -- 75
2019-08-18 02:00:00 20.8 10 Noroeste 15 Noroeste 0 -- -- 76
2019-08-18 01:00:00 21.4 11 Noroeste 14 Noroeste 0 -- -- 78
2019-08-18 00:00:00 22.4 6 Noroeste 14 Noroeste 0 -- -- 79
2019-08-17 23:00:00 23.1 6 Noroeste 10 Noroeste 0 -- -- 78
2019-08-17 22:00:00 24.9 5 Sur 9 Sur 0 -- -- 70
2019-08-17 21:00:00 26.3 7 Sudeste 22 Sudeste 0 -- -- 66
2019-08-17 20:00:00 28.3 14 Sudeste 22 Sudeste 0 -- -- 61
2019-08-17 19:00:00 29.8 15 Sudeste 27 Sudeste 0 -- -- 58
2019-08-17 18:00:00 30.6 15 Sudeste 32 Sudeste 0 -- -- 55
2019-08-17 17:00:00 31.2 18 Sudeste 32 Este 0 -- -- 55
2019-08-17 16:00:00 31.7 22 Sudeste 34 Este 0 -- -- 55
2019-08-17 15:00:00 31.5 20 Sudeste 32 Este 0 -- -- 54
2019-08-17 14:00:00 31.6 17 Sudeste 27 Sudeste 0 -- -- 54
2019-08-17 13:00:00 31.2 11 Sur 23 Sudeste 0 -- -- 48
2019-08-17 12:00:00 30.3 14 Sudeste 21 Sudoeste 0 -- -- 48
2019-08-17 11:00:00 27.7 8 Este 14 Este 0 -- -- 63
2019-08-17 10:00:00 25.1 4 Sudeste 7 Este 0 -- -- 68
2019-08-17 09:00:00 23 3 Este 6 Este 0 -- -- 78
2019-08-17 08:00:00 19.1 4 Noroeste 5 Noroeste 0 -- -- 91
2019-08-17 07:00:00 18.7 6 Noroeste 13 Noroeste 0 -- -- 87
2019-08-17 06:00:00 18.6 8 Noroeste 12 Noroeste 0 -- -- 88
2019-08-17 05:00:00 19.1 8 Noroeste 12 Noroeste 0 -- -- 86
2019-08-17 04:00:00 19.3 10 Noroeste 14 Noroeste 0 -- -- 85
2019-08-17 03:00:00 19.8 6 Noroeste 11 Noroeste 0 -- -- 84
2019-08-17 02:00:00 20 8 Noroeste 13 Noroeste 0 -- -- 85
2019-08-17 01:00:00 20.6 6 Noroeste 10 Oeste 0 -- -- 83
2019-08-17 00:00:00 21.5 6 Noroeste 11 Noroeste 0 -- -- 79
2019-08-16 23:00:00 22.5 2 Sudeste 5 Sur 0 -- -- 76
2019-08-16 22:00:00 24.4 4 Sudoeste 10 Sudoeste 0 -- -- 66
2019-08-16 21:00:00 26.4 3 Sur 16 Sudoeste 0 -- -- 60
2019-08-16 20:00:00 28.6 12 Sudoeste 23 Sudeste 0 -- -- 57
2019-08-16 19:00:00 29.8 13 Sudeste 21 Sudeste 0 -- -- 58
2019-08-16 18:00:00 28.7 11 Sudeste 19 Sudeste 0 -- -- 66
2019-08-16 17:00:00 28.3 11 Sudeste 23 Este 0 -- -- 66
2019-08-16 16:00:00 27.5 14 Sudeste 26 Sudeste 0 -- -- 68
2019-08-16 15:00:00 26.3 15 Sudeste 23 Sudeste 0 -- -- 72
2019-08-16 14:00:00 25.1 11 Sudeste 19 Sudeste 0 -- -- 75
2019-08-16 13:00:00 23.8 9 Sudeste 14 Sudeste 0 -- -- 79
2019-08-16 12:00:00 23.1 8 Sudeste 14 Sudeste 0 -- -- 80
2019-08-16 11:00:00 23.2 5 Sur 9 Sur 0 -- -- 81
2019-08-16 10:00:00 22.2 7 Sudeste 13 Sur 0 -- -- 85
2019-08-16 09:00:00 22.2 6 Sudeste 8 Sudeste 0.2 -- -- 87
2019-08-16 08:00:00 21.8 4 Sudoeste 6 Sudoeste 0 -- -- 91
2019-08-16 07:00:00 21.6 4 Noroeste 6 Noroeste 0 -- -- 91
2019-08-16 06:00:00 21.7 2 Norte 6 Noroeste 0 -- -- 88
2019-08-16 05:00:00 21.6 3 Noroeste 8 Oeste 0 -- -- 90
2019-08-16 04:00:00 21.7 4 Oeste 7 Noroeste 0 -- -- 86
2019-08-16 03:00:00 21.8 4 Noroeste 8 Noroeste 0 -- -- 87
2019-08-16 02:00:00 21.9 4 Noroeste 7 Noroeste 0 -- -- 85
2019-08-16 01:00:00 22.2 3 Noroeste 6 Norte 0 -- -- 80
2019-08-16 00:00:00 22 4 Noroeste 9 Noroeste 0 -- -- 82
2019-08-15 23:00:00 22.3 2 Noroeste 12 Este 0 -- -- 84
2019-08-15 22:00:00 22.3 4 Este 10 Nordeste 0 -- -- 82
2019-08-15 21:00:00 22.4 5 Este 19 Nordeste 2.4 -- -- 88
2019-08-15 20:00:00 24.3 9 Este 22 Este 0 -- -- 76
2019-08-15 19:00:00 26.2 14 Este 29 Este 0 -- -- 72
2019-08-15 18:00:00 28.6 19 Este 37 Sudeste 0 -- -- 61
2019-08-15 17:00:00 29.2 20 Sudeste 33 Sudeste 0 -- -- 58
2019-08-15 16:00:00 29.2 19 Sudeste 32 Sudeste 0 -- -- 56
2019-08-15 15:00:00 30.1 16 Sudeste 27 Sudeste 0 -- -- 55
2019-08-15 14:00:00 28.9 17 Sudeste 29 Sudeste 0 -- -- 62
2019-08-15 13:00:00 28.8 11 Sudeste 24 Este 0 -- -- 59
2019-08-15 12:00:00 27.9 8 Sudeste 21 Sur 0 -- -- 61
2019-08-15 11:00:00 26.1 6 Sudeste 12 Este 0 -- -- 67
2019-08-15 10:00:00 23.7 2 Este 10 Este 0 -- -- 75
2019-08-15 09:00:00 21.7 0 Calma 11 Noroeste 0 -- -- 79
2019-08-15 08:00:00 20.1 8 Noroeste 12 Noroeste 0 -- -- 81
2019-08-15 07:00:00 19.3 8 Noroeste 15 Noroeste 0 -- -- 85
2019-08-15 06:00:00 19 9 Noroeste 14 Noroeste 0 -- -- 83
2019-08-15 05:00:00 18.7 10 Noroeste 15 Noroeste 0 -- -- 83
2019-08-15 04:00:00 19 11 Noroeste 15 Noroeste 0 -- -- 82
2019-08-15 03:00:00 19.4 7 Noroeste 14 Oeste 0 -- -- 82
2019-08-15 02:00:00 19.8 9 Noroeste 15 Noroeste 0 -- -- 81
2019-08-15 01:00:00 20.1 10 Noroeste 15 Noroeste 0 -- -- 79
2019-08-15 00:00:00 20.7 9 Noroeste 15 Noroeste 0 -- -- 75
2019-08-14 23:00:00 21.2 11 Noroeste 14 Noroeste 0 -- -- 73
2019-08-14 22:00:00 23 4 Noroeste 8 Noroeste 0 -- -- 68
2019-08-14 21:00:00 24.6 3 Este 13 Este 0 -- -- 64
2019-08-14 20:00:00 26.3 9 Este 17 Sudeste 0 -- -- 54
2019-08-14 19:00:00 26.9 6 Sudeste 18 Este 0 -- -- 57
2019-08-14 18:00:00 26.9 9 Este 24 Sudeste 0 -- -- 58
2019-08-14 17:00:00 27 15 Sudeste 33 Sudeste 0 -- -- 56
2019-08-14 16:00:00 27.4 14 Sudeste 27 Este 0 -- -- 55
2019-08-14 15:00:00 27.8 19 Sudeste 30 Sudeste 0 -- -- 50
2019-08-14 14:00:00 28.3 18 Sudeste 31 Sudeste 0 -- -- 43
2019-08-14 13:00:00 27.2 10 Sur 23 Sudeste 0 -- -- 41
2019-08-14 12:00:00 25.3 13 Sudeste 22 Sudeste 0 -- -- 50
2019-08-14 11:00:00 24.3 9 Sudeste 17 Sudeste 0 -- -- 59
2019-08-14 10:00:00 22.5 8 Sudeste 12 Sudeste 0 -- -- 64
2019-08-14 09:00:00 20.2 4 Sudeste 5 Sudeste 0 -- -- 80
2019-08-14 08:00:00 18.1 4 Noroeste 10 Noroeste 0 -- -- 87
2019-08-14 07:00:00 17.2 8 Noroeste 16 Noroeste 0 -- -- 89
2019-08-14 06:00:00 17.4 9 Noroeste 15 Noroeste 0 -- -- 88
2019-08-14 05:00:00 17.6 10 Noroeste 13 Noroeste 0 -- -- 88
2019-08-14 04:00:00 17.8 10 Noroeste 12 Noroeste 0 -- -- 86
2019-08-14 03:00:00 17.9 8 Noroeste 12 Noroeste 0 -- -- 84
2019-08-14 02:00:00 18.3 9 Noroeste 11 Noroeste 0 -- -- 82
2019-08-14 01:00:00 18.8 8 Noroeste 10 Noroeste 0 -- -- 80
2019-08-14 00:00:00 20 8 Noroeste 12 Noroeste 0 -- -- 75
2019-08-13 23:00:00 20.6 4 Noroeste 7 Noroeste 0 -- -- 74
2019-08-13 22:00:00 22.4 4 Sudeste 12 Sudeste 0 -- -- 66
2019-08-13 21:00:00 23.9 11 Sudeste 22 Este 0 -- -- 60
2019-08-13 20:00:00 26.1 12 Sudeste 33 Sudeste 0 -- -- 51
2019-08-13 19:00:00 27.5 18 Sudeste 32 Sudeste 0 -- -- 45
2019-08-13 18:00:00 29.5 10 Sur 31 Sudoeste 0 -- -- 39
2019-08-13 17:00:00 29.2 13 Sur 33 Sur 0 -- -- 31
2019-08-13 16:00:00 29.6 13 Sur 32 Oeste 0 -- -- 35
2019-08-13 15:00:00 28.4 17 Sur 33 Sur 0 -- -- 32
2019-08-13 14:00:00 27.5 15 Sudoeste 35 Sur 0 -- -- 35
2019-08-13 13:00:00 26.4 8 Sudeste 19 Este 0 -- -- 40
2019-08-13 12:00:00 24.6 11 Sudeste 22 Sudeste 0 -- -- 45
2019-08-13 11:00:00 21.9 6 Sudoeste 11 Sudoeste 0 -- -- 52
2019-08-13 10:00:00 20.3 2 Sudoeste 7 Este 0 -- -- 60
2019-08-13 09:00:00 18.6 3 Sudeste 9 Este 0 -- -- 68
2019-08-13 08:00:00 17 3 Norte 11 Sur 0 -- -- 79
2019-08-13 07:00:00 16.1 2 Oeste 6 Sudoeste 0 -- -- 89
2019-08-13 06:00:00 16.8 2 Este 9 Sudeste 0 -- -- 85
2019-08-13 05:00:00 17.2 3 Nordeste 6 Sudeste 0 -- -- 87
2019-08-13 04:00:00 17.3 4 Sudeste 8 Este 0 -- -- 94
2019-08-13 03:00:00 17.9 0 Calma 6 Noroeste 0 -- -- 91
2019-08-13 02:00:00 18.4 3 Oeste 8 Oeste 0 -- -- 89
2019-08-13 01:00:00 19.6 2 Noroeste 9 Noroeste 0 -- -- 84
2019-08-13 00:00:00 21.2 5 Noroeste 11 Este 0 -- -- 65
2019-08-12 23:00:00 21.6 3 Noroeste 8 Oeste 0 -- -- 83
2019-08-12 22:00:00 22.1 6 Oeste 10 Sudeste 0 -- -- 81
2019-08-12 21:00:00 23.3 9 Sudeste 15 Sudeste 0 -- -- 73
2019-08-12 20:00:00 24.4 11 Este 24 Este 0 -- -- 70
2019-08-12 19:00:00 26 17 Sudeste 31 Sudeste 0 -- -- 64
2019-08-12 18:00:00 25.8 15 Este 32 Sudeste 0 -- -- 66
2019-08-12 17:00:00 27.3 22 Sudeste 32 Sudeste 0 -- -- 62
2019-08-12 16:00:00 28.8 13 Sudeste 26 Este 0 -- -- 52
2019-08-12 15:00:00 28 13 Sudeste 23 Sudeste 0 -- -- 54
2019-08-12 14:00:00 26.9 13 Sudeste 21 Sudeste 0 -- -- 62
2019-08-12 13:00:00 26.3 6 Sudeste 13 Sudeste 0 -- -- 64
2019-08-12 12:00:00 24.4 4 Este 14 Sudoeste 0 -- -- 74
2019-08-12 11:00:00 23.4 4 Este 8 Este 0 -- -- 82
2019-08-12 10:00:00 22.2 5 Sudeste 9 Este 0 -- -- 89
2019-08-12 09:00:00 21.4 3 Norte 5 Nordeste 0 -- -- 91
2019-08-12 08:00:00 20.7 0 Calma 9 Noroeste 0 -- -- 92
2019-08-12 07:00:00 20.5 4 Noroeste 26 Sudoeste 4.8 -- -- 94
2019-08-12 06:00:00 20.7 11 Oeste 24 Sudoeste 5.8 -- -- 94
2019-08-12 05:00:00 21.3 9 Sur 15 Sur 3.2 -- -- 92
2019-08-12 04:00:00 23.1 6 Noroeste 10 Oeste 0.4 -- -- 75
2019-08-12 03:00:00 22.5 5 Noroeste 9 Oeste 0 -- -- 76
2019-08-12 02:00:00 22 4 Noroeste 10 Noroeste 0 -- -- 79
2019-08-12 01:00:00 22.7 3 Noroeste 9 Noroeste 0 -- -- 74
2019-08-12 00:00:00 23.1 5 Noroeste 7 Norte 0 -- -- 76
2019-08-11 23:00:00 24.3 4 Este 15 Este 0 -- -- 72
2019-08-11 22:00:00 25 9 Este 17 Este 0 -- -- 71
2019-08-11 21:00:00 26.1 12 Este 22 Este 0 -- -- 77
2019-08-11 20:00:00 28.7 9 Sudeste 18 Sudeste 0 -- -- 66
2019-08-11 19:00:00 30 10 Sudeste 21 Sur 0 -- -- 60
2019-08-11 18:00:00 31.3 12 Sudeste 21 Sudeste 0 -- -- 52
2019-08-11 17:00:00 31.7 10 Sudeste 23 Sudeste 0 -- -- 48
2019-08-11 16:00:00 31.2 13 Este 30 Sudeste 0 -- -- 49
2019-08-11 15:00:00 31.7 19 Sudeste 31 Este 0 -- -- 47
2019-08-11 14:00:00 32.3 19 Sudeste 30 Sudeste 0 -- -- 45
2019-08-11 13:00:00 31.5 14 Sudeste 25 Sudeste 0 -- -- 48
2019-08-11 12:00:00 30 12 Sudeste 21 Sudeste 0 -- -- 49
2019-08-11 11:00:00 28.6 8 Sudeste 17 Este 0 -- -- 53
2019-08-11 10:00:00 26.8 5 Sudeste 12 Sudeste 0 -- -- 61
2019-08-11 09:00:00 24.3 4 Este 7 Noroeste 0 -- -- 72
2019-08-11 08:00:00 21.6 7 Noroeste 10 Noroeste 0 -- -- 79
2019-08-11 07:00:00 20.5 6 Noroeste 10 Noroeste 0 -- -- 82
2019-08-11 06:00:00 20.7 8 Noroeste 12 Noroeste 0 -- -- 83
2019-08-11 05:00:00 21 8 Noroeste 12 Oeste 0 -- -- 82
2019-08-11 04:00:00 21.5 10 Noroeste 13 Noroeste 0 -- -- 82
2019-08-11 03:00:00 22 9 Noroeste 12 Noroeste 0 -- -- 81
2019-08-11 02:00:00 22.6 7 Noroeste 14 Noroeste 0 -- -- 80
2019-08-11 01:00:00 23.3 10 Noroeste 13 Noroeste 0 -- -- 79
2019-08-11 00:00:00 23.6 4 Noroeste 10 Noroeste 0 -- -- 77
2019-08-10 23:00:00 24.8 2 Norte 6 Norte 0 -- -- 75
2019-08-10 22:00:00 25.6 2 Este 9 Sudeste 0 -- -- 73
2019-08-10 21:00:00 26.8 6 Este 14 Sur 0 -- -- 66
2019-08-10 20:00:00 28.5 12 Sur 18 Sudeste 0 -- -- 59
2019-08-10 19:00:00 30 12 Sudeste 23 Sudeste 0 -- -- 54
2019-08-10 18:00:00 31.2 15 Sur 25 Sur 0 -- -- 52
2019-08-10 17:00:00 32.1 14 Sudeste 29 Sudeste 0 -- -- 49
2019-08-10 16:00:00 32.3 17 Sudeste 28 Sudeste 0 -- -- 50
2019-08-10 15:00:00 32.7 19 Sudeste 31 Sudeste 0 -- -- 50
2019-08-10 14:00:00 32.9 19 Sudeste 30 Sudeste 0 -- -- 52
2019-08-10 13:00:00 32.7 15 Sudeste 26 Este 0 -- -- 52
2019-08-10 12:00:00 31.6 9 Este 21 Sudeste 0 -- -- 55
2019-08-10 11:00:00 30.1 6 Sudeste 11 Este 0 -- -- 62
2019-08-10 10:00:00 28.3 6 Este 10 Sudeste 0 -- -- 69
2019-08-10 09:00:00 26.2 3 Oeste 9 Noroeste 0 -- -- 78
2019-08-10 08:00:00 23 7 Noroeste 13 Noroeste 0 -- -- 78
2019-08-10 07:00:00 21.8 8 Noroeste 12 Noroeste 0 -- -- 78
2019-08-10 06:00:00 21.9 9 Noroeste 12 Noroeste 0 -- -- 77
2019-08-10 05:00:00 23.5 4 Oeste 11 Oeste 0 -- -- 79
2019-08-10 04:00:00 23.2 8 Noroeste 12 Noroeste 0 -- -- 68
2019-08-10 03:00:00 23.4 8 Noroeste 12 Noroeste 0 -- -- 68
2019-08-10 02:00:00 24 8 Noroeste 14 Noroeste 0 -- -- 69
2019-08-10 01:00:00 24.4 7 Noroeste 10 Noroeste 0 -- -- 72
2019-08-10 00:00:00 25.5 8 Noroeste 11 Noroeste 0 -- -- 70
2019-08-09 23:00:00 26.5 6 Noroeste 10 Noroeste 0 -- -- 70
2019-08-09 22:00:00 27.9 2 Noroeste 5 Este 0 -- -- 71
2019-08-09 21:00:00 30.5 3 Este 11 Sudeste 0 -- -- 64
2019-08-09 20:00:00 32.8 6 Sudeste 16 Sudeste 0 -- -- 53
2019-08-09 19:00:00 33.5 9 Sudeste 22 Sudeste 0 -- -- 53
2019-08-09 18:00:00 33.9 14 Sudeste 26 Sudeste 0 -- -- 48
2019-08-09 17:00:00 33.2 17 Sudeste 32 Sudeste 0 -- -- 57
2019-08-09 16:00:00 33.4 21 Sudeste 36 Sudeste 0 -- -- 57
2019-08-09 15:00:00 34.7 22 Sudeste 33 Este 0 -- -- 52
2019-08-09 14:00:00 34.9 17 Sudeste 28 Sudeste 0 -- -- 49
2019-08-09 13:00:00 35.5 16 Sudeste 24 Sudeste 0 -- -- 42
2019-08-09 12:00:00 33.9 13 Sudeste 21 Sudeste 0 -- -- 35
2019-08-09 11:00:00 31 8 Sudeste 15 Sur 0 -- -- 44
2019-08-09 10:00:00 28.2 6 Sudeste 12 Sudeste 0 -- -- 54
2019-08-09 09:00:00 26 0 Calma 9 Noroeste 0 -- -- 58
2019-08-09 08:00:00 22.1 7 Noroeste 12 Noroeste 0 -- -- 67
2019-08-09 07:00:00 20.4 8 Noroeste 12 Noroeste 0 -- -- 72
2019-08-09 06:00:00 21.2 8 Noroeste 13 Noroeste 0 -- -- 70
2019-08-09 05:00:00 21.7 6 Noroeste 13 Norte 0 -- -- 69
2019-08-09 04:00:00 22.1 7 Noroeste 13 Noroeste 0 -- -- 69
2019-08-09 03:00:00 22.7 7 Noroeste 12 Noroeste 0 -- -- 69
2019-08-09 02:00:00 22.8 3 Noroeste 10 Noroeste 0 -- -- 72
2019-08-09 01:00:00 23.6 6 Noroeste 14 Noroeste 0 -- -- 71
2019-08-09 00:00:00 24.4 10 Noroeste 13 Noroeste 0 -- -- 69
2019-08-08 23:00:00 25.4 8 Noroeste 10 Noroeste 0 -- -- 66
2019-08-08 22:00:00 27 3 Norte 9 Sudeste 0 -- -- 61
2019-08-08 21:00:00 29.2 8 Sudeste 21 Sudeste 0 -- -- 53
2019-08-08 20:00:00 31 15 Sudeste 27 Sudeste 0 -- -- 50
2019-08-08 19:00:00 31.6 19 Sudeste 30 Sudeste 0 -- -- 53
2019-08-08 18:00:00 32.3 17 Sudeste 28 Este 0 -- -- 52
2019-08-08 17:00:00 32.5 19 Sudeste 31 Sudeste 0 -- -- 53
2019-08-08 16:00:00 33 20 Sudeste 34 Este 0 -- -- 53
2019-08-08 15:00:00 32.7 22 Sudeste 37 Este 0 -- -- 56
2019-08-08 14:00:00 32.9 23 Sudeste 35 Sudeste 0 -- -- 57
2019-08-08 13:00:00 33.6 16 Sudeste 30 Sudeste 0 -- -- 46
2019-08-08 12:00:00 32.1 11 Sudeste 22 Sudeste 0 -- -- 51
2019-08-08 11:00:00 29.9 7 Este 13 Este 0 -- -- 62
2019-08-08 10:00:00 27.2 4 Sudeste 9 Sudeste 0 -- -- 73
2019-08-08 09:00:00 24.9 3 Este 6 Este 0 -- -- 84
2019-08-08 08:00:00 22.2 0 Calma 9 Noroeste 0 -- -- 89
2019-08-08 07:00:00 21.2 2 Noroeste 7 Sur 0 -- -- 94
2019-08-08 06:00:00 21.8 4 Noroeste 10 Noroeste 0 -- -- 92
2019-08-08 05:00:00 22.3 2 Noroeste 6 Sudoeste 0 -- -- 92
2019-08-08 04:00:00 23.3 4 Noroeste 6 Noroeste 0 -- -- 91
2019-08-08 03:00:00 23.7 4 Oeste 8 Sur 0 -- -- 89
2019-08-08 02:00:00 24.2 5 Sudoeste 12 Sudeste 0 -- -- 87
2019-08-08 01:00:00 24.7 2 Noroeste 7 Noroeste 0 -- -- 82
2019-08-08 00:00:00 24.5 2 Sudeste 8 Sur 0 -- -- 82
2019-08-07 23:00:00 24.4 4 Sur 6 Sur 0 -- -- 83
2019-08-07 22:00:00 24.9 3 Este 16 Sudeste 0 -- -- 81
2019-08-07 21:00:00 25.2 13 Sudeste 18 Sudeste 0 -- -- 79
2019-08-07 20:00:00 26.3 9 Sur 13 Sur 0 -- -- 74
2019-08-07 19:00:00 26.8 4 Sudeste 17 Sudeste 0 -- -- 72
2019-08-07 18:00:00 27 6 Sudeste 18 Sur 0 -- -- 70
2019-08-07 17:00:00 27.3 12 Sudeste 28 Sudeste 0 -- -- 67
2019-08-07 16:00:00 28.1 13 Sudeste 24 Sudeste 0 -- -- 66
2019-08-07 15:00:00 30 19 Sudeste 31 Sudeste 0 -- -- 60
2019-08-07 14:00:00 30.8 15 Sudeste 26 Sudeste 0 -- -- 54
2019-08-07 13:00:00 30.5 11 Sudeste 25 Sudeste 0 -- -- 58
2019-08-07 12:00:00 29.9 8 Sudeste 17 Este 0 -- -- 61
2019-08-07 11:00:00 27.8 7 Sudeste 13 Sudeste 0 -- -- 69
2019-08-07 10:00:00 27 4 Este 9 Sudeste 0 -- -- 73
2019-08-07 09:00:00 25.1 2 Este 5 Este 0 -- -- 83
2019-08-07 08:00:00 23.2 0 Calma 4 Noroeste 0 -- -- 89
2019-08-07 07:00:00 23.3 0 Calma 8 Oeste 0 -- -- 88
2019-08-07 06:00:00 24 3 Noroeste 6 Noroeste 0 -- -- 87
2019-08-07 05:00:00 24.4 3 Nordeste 6 Norte 0 -- -- 87
2019-08-07 04:00:00 24.3 2 Norte 5 Norte 0 -- -- 87
2019-08-07 03:00:00 23.6 0 Calma 4 Noroeste 0 -- -- 86
2019-08-07 02:00:00 23.5 3 Norte 8 Sudoeste 0 -- -- 86
2019-08-07 01:00:00 24.4 5 Este 9 Nordeste 0 -- -- 85
2019-08-07 00:00:00 24.5 5 Noroeste 6 Noroeste 0 -- -- 81
2019-08-06 23:00:00 25 4 Noroeste 7 Noroeste 0 -- -- 80
2019-08-06 22:00:00 25.6 3 Norte 10 Sur 0 -- -- 80
2019-08-06 21:00:00 26.9 8 Sudeste 13 Sudeste 0 -- -- 75
2019-08-06 20:00:00 28.4 9 Sudeste 19 Sudeste 0 -- -- 65
2019-08-06 19:00:00 29 13 Sudeste 22 Sudeste 0 -- -- 66
2019-08-06 18:00:00 32.1 13 Sudeste 23 Sudeste 0 -- -- 48
2019-08-06 17:00:00 32.5 17 Sudeste 28 Sudeste 0 -- -- 45
2019-08-06 16:00:00 33.7 12 Sudeste 22 Sur 0 -- -- 42
2019-08-06 15:00:00 32.6 6 Este 19 Este 0 -- -- 40
2019-08-06 14:00:00 31.5 6 Sur 25 Sudeste 0 -- -- 43
2019-08-06 13:00:00 31 15 Sudeste 24 Este 0 -- -- 50
2019-08-06 12:00:00 30.1 10 Sudeste 22 Sudeste 0 -- -- 50
2019-08-06 11:00:00 29.1 11 Sudeste 21 Este 0 -- -- 43
2019-08-06 10:00:00 27.8 5 Nordeste 12 Nordeste 0 -- -- 49
2019-08-06 09:00:00 25.3 0 Calma 10 Noroeste 0 -- -- 51
2019-08-06 08:00:00 21.2 10 Noroeste 14 Noroeste 0 -- -- 56
2019-08-06 07:00:00 20 6 Noroeste 12 Noroeste 0 -- -- 59
2019-08-06 06:00:00 20.2 8 Noroeste 12 Noroeste 0 -- -- 58
2019-08-06 05:00:00 20.8 4 Noroeste 12 Noroeste 0 -- -- 56
2019-08-06 04:00:00 21.3 10 Noroeste 13 Noroeste 0 -- -- 55
2019-08-06 03:00:00 21.7 5 Noroeste 14 Noroeste 0 -- -- 54
2019-08-06 02:00:00 22 9 Noroeste 13 Noroeste 0 -- -- 54
2019-08-06 01:00:00 22.5 8 Noroeste 14 Noroeste 0 -- -- 54
2019-08-06 00:00:00 23.1 10 Noroeste 13 Noroeste 0 -- -- 54
2019-08-05 23:00:00 24 8 Noroeste 11 Noroeste 0 -- -- 54
2019-08-05 22:00:00 25.4 3 Oeste 9 Sudeste 0 -- -- 53
2019-08-05 21:00:00 28.4 3 Sudeste 13 Sudeste 0 -- -- 44
2019-08-05 20:00:00 30.5 8 Este 18 Este 0 -- -- 40
2019-08-05 19:00:00 31.5 12 Sudeste 23 Sudeste 0 -- -- 38
2019-08-05 18:00:00 31.6 17 Sudeste 31 Sudeste 0 -- -- 38
2019-08-05 17:00:00 32.9 18 Sudeste 27 Sudeste 0 -- -- 34
2019-08-05 16:00:00 33.3 18 Sudeste 28 Este 0 -- -- 34
2019-08-05 15:00:00 33.9 16 Sudeste 33 Sudeste 0 -- -- 32
2019-08-05 14:00:00 34 15 Sudeste 28 Sudeste 0 -- -- 31
2019-08-05 13:00:00 33.7 12 Sudeste 21 Sudeste 0 -- -- 32
2019-08-05 12:00:00 32.5 5 Este 15 Sudeste 0 -- -- 34
2019-08-05 11:00:00 30.7 5 Sudeste 9 Este 0 -- -- 39
2019-08-05 10:00:00 28.5 4 Este 7 Este 0 -- -- 45
2019-08-05 09:00:00 25.5 0 Calma 4 Este 0 -- -- 54
2019-08-05 08:00:00 21.5 2 Noroeste 12 Noroeste 0 -- -- 63
2019-08-05 07:00:00 20.2 5 Noroeste 14 Noroeste 0 -- -- 62
2019-08-05 06:00:00 20.8 4 Noroeste 13 Noroeste 0 -- -- 61
2019-08-05 05:00:00 20.9 9 Noroeste 13 Noroeste 0 -- -- 59
2019-08-05 04:00:00 21.3 8 Noroeste 10 Oeste 0 -- -- 58
2019-08-05 03:00:00 22 6 Noroeste 12 Noroeste 0 -- -- 57
2019-08-05 02:00:00 21.9 8 Noroeste 12 Noroeste 0 -- -- 59
2019-08-05 01:00:00 22.5 9 Noroeste 12 Noroeste 0 -- -- 56
2019-08-05 00:00:00 23.4 9 Noroeste 13 Noroeste 0 -- -- 53
2019-08-04 23:00:00 24.3 5 Noroeste 9 Oeste 0 -- -- 53
2019-08-04 22:00:00 25.7 4 Noroeste 9 Noroeste 0 -- -- 48
2019-08-04 21:00:00 28.7 3 Sur 14 Sudeste 0 -- -- 43
2019-08-04 20:00:00 30.8 10 Sudeste 24 Sudeste 0 -- -- 37
2019-08-04 19:00:00 31.5 16 Sudeste 31 Sudeste 0 -- -- 34
2019-08-04 18:00:00 32 21 Sudeste 35 Sudeste 0 -- -- 37
2019-08-04 17:00:00 32.4 22 Sudeste 36 Este 0 -- -- 37
2019-08-04 16:00:00 32.2 20 Sudeste 31 Este 0 -- -- 39
2019-08-04 15:00:00 32.4 19 Sudeste 30 Este 0 -- -- 43
2019-08-04 14:00:00 33 18 Sudeste 30 Sudeste 0 -- -- 41
2019-08-04 13:00:00 33 12 Sudeste 23 Sudeste 0 -- -- 34
2019-08-04 12:00:00 31.9 8 Este 16 Sur 0 -- -- 34
2019-08-04 11:00:00 29.6 8 Sudeste 13 Este 0 -- -- 43
2019-08-04 10:00:00 26.9 3 Nordeste 5 Sudeste 0 -- -- 51
2019-08-04 09:00:00 24.7 0 Calma 6 Noroeste 0 -- -- 59
2019-08-04 08:00:00 20.9 4 Noroeste 11 Noroeste 0 -- -- 67
2019-08-04 07:00:00 19.1 7 Noroeste 9 Noroeste 0 -- -- 72
2019-08-04 06:00:00 19.8 4 Noroeste 12 Noroeste 0 -- -- 68
2019-08-04 05:00:00 19.9 8 Noroeste 15 Noroeste 0 -- -- 68
2019-08-04 04:00:00 20.1 10 Noroeste 12 Noroeste 0 -- -- 68
2019-08-04 03:00:00 20.4 7 Noroeste 12 Noroeste 0 -- -- 67
2019-08-04 02:00:00 21.3 10 Noroeste 15 Noroeste 0 -- -- 64
2019-08-04 01:00:00 22 7 Noroeste 10 Noroeste 0 -- -- 63
2019-08-04 00:00:00 22.7 3 Noroeste 6 Oeste 0 -- -- 64
2019-08-03 23:00:00 24.3 0 Calma 6 Sudoeste 0 -- -- 62
2019-08-03 22:00:00 26.3 4 Sur 10 Sudeste 0 -- -- 52
2019-08-03 21:00:00 27.5 9 Sudeste 16 Sudeste 0 -- -- 53
2019-08-03 20:00:00 29.5 12 Sudeste 26 Sudeste 0 -- -- 45
2019-08-03 19:00:00 31.3 16 Sudeste 29 Sudeste 0 -- -- 40
2019-08-03 18:00:00 32.2 21 Sudeste 33 Sudeste 0 -- -- 36
2019-08-03 17:00:00 32.8 23 Sudeste 35 Este 0 -- -- 33
2019-08-03 16:00:00 31.6 19 Este 36 Sudeste 0 -- -- 43
2019-08-03 15:00:00 31.8 19 Este 35 Sudeste 0 -- -- 42
2019-08-03 14:00:00 32.1 18 Sudeste 30 Este 0 -- -- 35
2019-08-03 13:00:00 32.2 17 Sudeste 27 Sudeste 0 -- -- 34
2019-08-03 12:00:00 31.3 10 Sudeste 19 Sur 0 -- -- 34
2019-08-03 11:00:00 29.3 6 Este 13 Este 0 -- -- 43
2019-08-03 10:00:00 26.2 4 Este 9 Este 0 -- -- 50
2019-08-03 09:00:00 23.7 3 Este 6 Este 0 -- -- 60
2019-08-03 08:00:00 19.7 2 Norte 3 Oeste 0 -- -- 72
2019-08-03 07:00:00 17.7 2 Noroeste 5 Noroeste 0 -- -- 74
2019-08-03 06:00:00 18.7 4 Noroeste 12 Noroeste 0 -- -- 67
2019-08-03 05:00:00 18.7 7 Noroeste 10 Noroeste 0 -- -- 67
2019-08-03 04:00:00 19.7 9 Noroeste 13 Noroeste 0 -- -- 63
2019-08-03 03:00:00 19.9 4 Noroeste 13 Noroeste 0 -- -- 64
2019-08-03 02:00:00 20.9 9 Noroeste 12 Oeste 0 -- -- 62
2019-08-03 01:00:00 21.3 10 Noroeste 15 Noroeste 0 -- -- 65
2019-08-03 00:00:00 21.7 10 Noroeste 16 Noroeste 0 -- -- 64
2019-08-02 23:00:00 22.4 6 Noroeste 9 Oeste 0 -- -- 62
2019-08-02 22:00:00 23.7 4 Norte 10 Sur 0 -- -- 58
2019-08-02 21:00:00 26.5 10 Sudeste 19 Sudeste 0 -- -- 48
2019-08-02 20:00:00 28.4 13 Sudeste 24 Sudeste 0 -- -- 45
2019-08-02 19:00:00 29.4 15 Sudeste 31 Sudeste 0 -- -- 45
2019-08-02 18:00:00 29.8 21 Sudeste 34 Este 0 -- -- 40
2019-08-02 17:00:00 30.4 19 Sudeste 38 Sudeste 0 -- -- 38
2019-08-02 16:00:00 30.8 20 Sudeste 36 Sudeste 0 -- -- 36
2019-08-02 15:00:00 31.3 24 Sudeste 35 Sudeste 0 -- -- 36
2019-08-02 14:00:00 33 22 Sudeste 33 Sudeste 0 -- -- 38
2019-08-02 13:00:00 32.8 4 Este 21 Sur 0 -- -- 32
2019-08-02 12:00:00 31.2 10 Sur 20 Sudoeste 0 -- -- 35
2019-08-02 11:00:00 29.4 4 Sur 11 Sudoeste 0 -- -- 38
2019-08-02 10:00:00 26.3 6 Este 9 Este 0 -- -- 45
2019-08-02 09:00:00 23.3 0 Calma 4 Este 0 -- -- 53
2019-08-02 08:00:00 19.9 0 Calma 9 Oeste 0 -- -- 67
2019-08-02 07:00:00 18.1 5 Noroeste 8 Noroeste 0 -- -- 68
2019-08-02 06:00:00 18.6 3 Noroeste 12 Noroeste 0 -- -- 66
2019-08-02 05:00:00 19.7 6 Noroeste 9 Noroeste 0 -- -- 60
2019-08-02 04:00:00 19.6 3 Sur 9 Noroeste 0 -- -- 63
2019-08-02 03:00:00 19.8 6 Noroeste 12 Noroeste 0 -- -- 58
2019-08-02 02:00:00 20.2 7 Noroeste 17 Noroeste 0 -- -- 55
2019-08-02 01:00:00 20.3 11 Noroeste 13 Noroeste 0 -- -- 54
2019-08-02 00:00:00 21.2 8 Noroeste 13 Noroeste 0 -- -- 51
2019-08-01 23:00:00 21.9 9 Noroeste 13 Noroeste 0 -- -- 50
2019-08-01 22:00:00 23.6 3 Noroeste 6 Sudoeste 0 -- -- 46
2019-08-01 21:00:00 26.8 0 Calma 10 Este 0 -- -- 39
2019-08-01 20:00:00 28.1 6 Sudeste 18 Este 0 -- -- 32
2019-08-01 19:00:00 28.6 10 Sudeste 23 Sudeste 0 -- -- 31
2019-08-01 18:00:00 29.9 18 Sudeste 26 Sudeste 0 -- -- 31
2019-08-01 17:00:00 31.3 13 Este 29 Sudeste 0 -- -- 28
2019-08-01 16:00:00 32 13 Este 26 Sudeste 0 -- -- 30
2019-08-01 15:00:00 31.3 9 Este 28 Este 0 -- -- 32
2019-08-01 14:00:00 31.1 11 Sudeste 20 Sudeste 0 -- -- 32
2019-08-01 13:00:00 30.3 6 Este 20 Este 0 -- -- 34
2019-08-01 12:00:00 29.1 7 Este 19 Este 0 -- -- 34
2019-08-01 11:00:00 27.4 4 Norte 13 Este 0 -- -- 41
2019-08-01 10:00:00 25.4 5 Este 15 Este 0 -- -- 47
2019-08-01 09:00:00 23.1 4 Nordeste 17 Nordeste 0 -- -- 64
2019-08-01 08:00:00 19.7 0 Calma 9 Noroeste 0 -- -- 82
2019-08-01 07:00:00 18.5 2 Norte 7 Sudoeste 0 -- -- 88
2019-08-01 06:00:00 19.2 6 Sudeste 15 Noroeste 0 -- -- 85
2019-08-01 05:00:00 20.1 10 Noroeste 16 Noroeste 0 -- -- 81
2019-08-01 04:00:00 19.5 6 Noroeste 10 Noroeste 0 -- -- 86
2019-08-01 03:00:00 20.2 4 Noroeste 8 Noroeste 0 -- -- 83
2019-08-01 02:00:00 20.2 4 Noroeste 10 Noroeste 0 -- -- 83
2019-08-01 01:00:00 20.7 5 Noroeste 13 Noroeste 0 -- -- 81
2019-08-01 00:00:00 21.1 4 Nordeste 13 Oeste 0 -- -- 80
2019-07-31 23:00:00 21.4 7 Noroeste 9 Noroeste 0 -- -- 78
2019-07-31 22:00:00 22.3 4 Sudoeste 12 Sur 0 -- -- 74
2019-07-31 21:00:00 23.5 8 Sur 14 Sur 0 -- -- 69
2019-07-31 20:00:00 25.4 7 Sur 17 Sudeste 0 -- -- 63
2019-07-31 19:00:00 25.8 9 Sudeste 23 Sudeste 0 -- -- 61
2019-07-31 18:00:00 26.5 15 Sudeste 24 Sudeste 0 -- -- 60
2019-07-31 17:00:00 27.1 16 Sudeste 28 Sudeste 0 -- -- 59
2019-07-31 16:00:00 27.2 14 Sudeste 27 Sudeste 0 -- -- 58
2019-07-31 15:00:00 27.3 16 Sudeste 30 Sudeste 0 -- -- 57
2019-07-31 14:00:00 27 21 Sudeste 37 Sudeste 0 -- -- 58
2019-07-31 13:00:00 28.6 14 Sudeste 31 Sudeste 0 -- -- 52
2019-07-31 12:00:00 26.5 6 Sur 14 Sudeste 0 -- -- 59
2019-07-31 11:00:00 24.7 6 Oeste 10 Este 0 -- -- 61
2019-07-31 10:00:00 23.8 8 Sudeste 11 Sudeste 0 -- -- 60
2019-07-31 09:00:00 23.8 6 Este 9 Sudeste 0 -- -- 61
2019-07-31 08:00:00 21.9 2 Noroeste 9 Sudoeste 0 -- -- 71
2019-07-31 07:00:00 21.5 3 Sudoeste 9 Noroeste 0 -- -- 86
2019-07-31 06:00:00 21.1 5 Noroeste 8 Noroeste 0 -- -- 88
2019-07-31 05:00:00 20.5 4 Noroeste 8 Noroeste 0 -- -- 89
2019-07-31 04:00:00 21.4 5 Noroeste 8 Noroeste 0 -- -- 87
2019-07-31 03:00:00 21.5 4 Noroeste 6 Noroeste 0 -- -- 87
2019-07-31 02:00:00 22.1 3 Noroeste 5 Noroeste 0 -- -- 85
2019-07-31 01:00:00 23.4 0 Calma 6 Este 0 -- -- 78
2019-07-31 00:00:00 23.5 5 Este 12 Sudeste 0 -- -- 78
2019-07-30 23:00:00 23.6 6 Sudeste 17 Sudeste 0 -- -- 78
2019-07-30 22:00:00 23.9 8 Sudeste 21 Sudeste 0 -- -- 79
2019-07-30 21:00:00 24.4 13 Sudeste 22 Este 0 -- -- 77
2019-07-30 20:00:00 25.3 14 Sudeste 24 Sudeste 0 -- -- 72
2019-07-30 19:00:00 26.5 17 Sudeste 26 Sudeste 0 -- -- 68
2019-07-30 18:00:00 27.3 13 Sudeste 30 Sudeste 0 -- -- 66
2019-07-30 17:00:00 28.3 19 Sudeste 33 Este 0 -- -- 62
2019-07-30 16:00:00 28.6 21 Sudeste 33 Sudeste 0 -- -- 66
2019-07-30 15:00:00 28.3 22 Sudeste 31 Sudeste 0 -- -- 63
2019-07-30 14:00:00 28.5 18 Sudeste 30 Sudeste 0 -- -- 65
2019-07-30 13:00:00 27.4 21 Sudeste 30 Este 0 -- -- 70
2019-07-30 12:00:00 27.5 8 Este 17 Este 0 -- -- 66
2019-07-30 11:00:00 27.6 6 Sudeste 14 Este 0 -- -- 70
2019-07-30 10:00:00 26.2 5 Nordeste 9 Sudeste 0 -- -- 76
2019-07-30 09:00:00 23.3 3 Este 6 Noroeste 0 -- -- 83
2019-07-30 08:00:00 22 3 Noroeste 6 Noroeste 0 -- -- 85
2019-07-30 07:00:00 21.3 5 Noroeste 9 Oeste 0 -- -- 88
2019-07-30 06:00:00 21.7 4 Norte 9 Noroeste 0 -- -- 81
2019-07-30 05:00:00 22 4 Noroeste 14 Oeste 0 -- -- 84
2019-07-30 04:00:00 21.7 9 Oeste 17 Noroeste 0 -- -- 84
2019-07-30 03:00:00 21.2 12 Noroeste 17 Noroeste 0 -- -- 86
2019-07-30 02:00:00 21.7 9 Noroeste 15 Noroeste 0 -- -- 86
2019-07-30 01:00:00 22.3 9 Noroeste 13 Noroeste 0 -- -- 87
2019-07-30 00:00:00 22.8 6 Noroeste 9 Oeste 0 -- -- 89
2019-07-29 23:00:00 23.8 5 Noroeste 6 Noroeste 0 -- -- 87
2019-07-29 22:00:00 25.1 0 Calma 6 Nordeste 0 -- -- 81
2019-07-29 21:00:00 26.5 5 Este 20 Sudeste 0 -- -- 73
2019-07-29 20:00:00 27.9 14 Sudeste 25 Este 0 -- -- 69
2019-07-29 19:00:00 29.2 15 Sudeste 26 Sudeste 0 -- -- 65
2019-07-29 18:00:00 30.4 17 Sudeste 30 Sudeste 0 -- -- 55
2019-07-29 17:00:00 30.6 17 Sudeste 29 Este 0 -- -- 53
2019-07-29 16:00:00 30.2 16 Sudeste 29 Sudeste 0 -- -- 53
2019-07-29 15:00:00 29.7 20 Sudeste 34 Sudeste 0 -- -- 53
2019-07-29 14:00:00 28.8 18 Sudeste 29 Sudeste 0 -- -- 62
2019-07-29 13:00:00 28.7 18 Sudeste 27 Sudeste 0 -- -- 57
2019-07-29 12:00:00 27.9 6 Sudeste 16 Sur 0 -- -- 46
2019-07-29 11:00:00 25.4 6 Sudeste 14 Sudeste 0 -- -- 59
2019-07-29 10:00:00 23.4 6 Sudeste 11 Sudeste 0 -- -- 71
2019-07-29 09:00:00 21.1 6 Este 9 Este 0 -- -- 77
2019-07-29 08:00:00 18.7 3 Noroeste 8 Oeste 0 -- -- 87
2019-07-29 07:00:00 17.1 4 Noroeste 12 Noroeste 0 -- -- 90
2019-07-29 06:00:00 17.2 10 Noroeste 14 Noroeste 0 -- -- 89
2019-07-29 05:00:00 17.6 7 Noroeste 13 Noroeste 0 -- -- 87
2019-07-29 04:00:00 18.1 11 Noroeste 14 Noroeste 0 -- -- 84
2019-07-29 03:00:00 18 11 Noroeste 15 Noroeste 0 -- -- 85
2019-07-29 02:00:00 18.3 11 Noroeste 16 Noroeste 0 -- -- 82
2019-07-29 01:00:00 18.7 8 Noroeste 15 Noroeste 0 -- -- 82
2019-07-29 00:00:00 19.6 9 Noroeste 12 Noroeste 0 -- -- 78
2019-07-28 23:00:00 20.8 6 Noroeste 10 Noroeste 0 -- -- 75
2019-07-28 22:00:00 22.5 2 Nordeste 15 Nordeste 0 -- -- 67
2019-07-28 21:00:00 23.7 8 Este 22 Sudeste 0 -- -- 62
2019-07-28 20:00:00 25.9 11 Sudeste 20 Sudeste 0 -- -- 51
2019-07-28 19:00:00 26.1 13 Sudeste 26 Sudeste 0 -- -- 50
2019-07-28 18:00:00 26.6 18 Sudeste 28 Sudeste 0 -- -- 48
2019-07-28 17:00:00 27 17 Sudeste 28 Sudeste 0 -- -- 45
2019-07-28 16:00:00 27.2 20 Sudeste 28 Sudeste 0 -- -- 51
2019-07-28 15:00:00 26.5 18 Sudeste 30 Sudeste 0 -- -- 54
2019-07-28 14:00:00 26.6 14 Este 37 Sudeste 0 -- -- 52
2019-07-28 13:00:00 26.7 10 Este 19 Este 0 -- -- 45
2019-07-28 12:00:00 25.8 7 Este 15 Sudeste 0 -- -- 43
2019-07-28 11:00:00 24.7 4 Sur 15 Oeste 0 -- -- 46
2019-07-28 10:00:00 22.5 8 Noroeste 13 Noroeste 0 -- -- 52
2019-07-28 09:00:00 20.1 3 Oeste 9 Sudoeste 0 -- -- 65
2019-07-28 08:00:00 17.6 0 Calma 9 Oeste 0 -- -- 82
2019-07-28 07:00:00 16.3 4 Sudeste 10 Norte 0 -- -- 90
2019-07-28 06:00:00 16.3 3 Noroeste 8 Sudoeste 0 -- -- 96
2019-07-28 05:00:00 16.7 2 Este 7 Este 0 -- -- 95
2019-07-28 04:00:00 17.2 0 Calma 10 Oeste 0 -- -- 93
2019-07-28 03:00:00 17.6 5 Oeste 6 Oeste 0 -- -- 94
2019-07-28 02:00:00 18.2 4 Norte 7 Noroeste 0 -- -- 88
2019-07-28 01:00:00 19.5 0 Calma 12 Noroeste 0 -- -- 81
2019-07-28 00:00:00 20.2 4 Norte 14 Oeste 0 -- -- 79
2019-07-27 23:00:00 21.8 4 Sudoeste 14 Sudeste 0 -- -- 87
2019-07-26 12:00:00 -- -- -- -- -- -- -- -- --
2019-07-26 11:00:00 30 6 Sudeste 10 Sudeste 0 -- -- 37
2019-07-26 10:00:00 28.5 4 Sudeste 8 Este 0 -- -- 50
2019-07-26 09:00:00 26.5 3 Este 6 Este 0 -- -- 57
2019-07-26 08:00:00 23.2 5 Noroeste 11 Oeste 0 -- -- 62
2019-07-26 07:00:00 20.4 9 Noroeste 13 Noroeste 0 -- -- 70
2019-07-26 06:00:00 20.1 8 Noroeste 10 Noroeste 0 -- -- 72
2019-07-26 05:00:00 20.5 6 Noroeste 15 Noroeste 0 -- -- 70
2019-07-26 04:00:00 20.7 12 Noroeste 16 Noroeste 0 -- -- 70
2019-07-26 03:00:00 21.1 11 Noroeste 15 Noroeste 0 -- -- 72
2019-07-26 02:00:00 21.6 8 Noroeste 15 Noroeste 0 -- -- 73
2019-07-26 01:00:00 22.5 11 Noroeste 15 Noroeste 0 -- -- 74
2019-07-26 00:00:00 23.7 8 Oeste 12 Noroeste 0 -- -- 75